Time;durP1;ratioP1;P1;durP2;ratioP2;P2;SDS_P1;SDS_P2;PMS_P1;PMS_P2;Temp;Humidity;BMP_temperature;BMP_pressure;BME280_temperature;BME280_humidity;BME280_pressure;Samples;Min_cycle;Max_cycle;Signal;HPM_P1;HPM_P2
2022/07/12 00:00:04;;;;;;;0.88;0.70;;;21.90;56.70;;;;;;6173360;28;20034;-67
2022/07/12 00:03:05;;;;;;;1.63;0.93;;;21.90;56.70;;;;;;6173458;28;20042;-67
2022/07/12 00:06:05;;;;;;;0.60;0.50;;;21.90;56.70;;;;;;6173350;28;20521;-66
2022/07/12 00:09:07;;;;;;;0.80;0.60;;;21.90;56.70;;;;;;6173367;28;20043;-68
2022/07/12 00:12:08;;;;;;;1.15;0.80;;;21.90;56.70;;;;;;6172242;28;20034;-67
2022/07/12 00:15:10;;;;;;;0.60;0.60;;;21.90;56.70;;;;;;6173043;28;20434;-67
2022/07/12 00:18:11;;;;;;;0.90;0.80;;;21.90;56.70;;;;;;6173094;28;20027;-67
2022/07/12 00:21:11;;;;;;;0.73;0.70;;;21.90;56.70;;;;;;6173034;28;20054;-67
2022/07/12 00:24:12;;;;;;;0.95;0.80;;;21.90;56.70;;;;;;6172506;28;20022;-67
2022/07/12 00:27:12;;;;;;;1.15;0.70;;;21.90;56.70;;;;;;6172530;28;20097;-68
2022/07/12 00:30:13;;;;;;;0.75;0.70;;;21.90;56.70;;;;;;6172251;28;20026;-67
2022/07/12 00:33:14;;;;;;;1.20;0.70;;;21.90;56.70;;;;;;6172639;28;20026;-67
2022/07/12 00:36:15;;;;;;;1.05;0.73;;;21.90;56.80;;;;;;6172226;28;20078;-67
2022/07/12 00:39:15;;;;;;;1.00;0.73;;;21.90;56.70;;;;;;6172730;28;20873;-67
2022/07/12 00:42:16;;;;;;;0.73;0.63;;;21.90;56.70;;;;;;6172405;28;20031;-67
2022/07/12 00:45:17;;;;;;;1.20;0.80;;;21.90;56.70;;;;;;6172299;28;20030;-67
2022/07/12 00:48:18;;;;;;;0.68;0.60;;;21.90;56.70;;;;;;6172327;28;20066;-67
2022/07/12 00:51:19;;;;;;;1.02;0.90;;;21.90;56.70;;;;;;6172228;28;20390;-67
2022/07/12 00:54:20;;;;;;;0.65;0.60;;;21.90;56.80;;;;;;6171812;28;20069;-67
2022/07/12 00:57:20;;;;;;;0.50;0.50;;;21.90;56.80;;;;;;6172193;28;20023;-67
2022/07/12 01:00:26;;;;;;;0.90;0.70;;;21.90;56.80;;;;;;6172267;28;20023;-67
2022/07/12 01:03:27;;;;;;;0.88;0.70;;;21.90;56.80;;;;;;6172306;28;20029;-68
2022/07/12 01:06:30;;;;;;;1.00;0.70;;;21.90;56.80;;;;;;6171801;28;20027;-67
2022/07/12 01:09:31;;;;;;;0.80;0.60;;;21.90;56.80;;;;;;6172004;28;20122;-67
2022/07/12 01:12:32;;;;;;;1.17;0.80;;;21.90;56.80;;;;;;6171892;28;20500;-67
2022/07/12 01:15:33;;;;;;;0.70;0.70;;;21.90;56.80;;;;;;6171961;28;20019;-67
2022/07/12 01:18:35;;;;;;;0.70;0.68;;;21.90;56.80;;;;;;6171654;28;20019;-68
2022/07/12 01:21:38;;;;;;;1.45;0.90;;;21.90;56.80;;;;;;6171624;28;20541;-68
2022/07/12 01:24:39;;;;;;;0.95;0.80;;;21.90;56.80;;;;;;6171226;28;20078;-66
2022/07/12 01:27:39;;;;;;;0.98;0.80;;;21.90;56.80;;;;;;6171075;28;20039;-67
2022/07/12 01:30:41;;;;;;;0.73;0.68;;;21.90;56.80;;;;;;6171002;28;20015;-67
2022/07/12 01:33:42;;;;;;;0.98;0.80;;;21.90;56.80;;;;;;6171183;28;20027;-68
2022/07/12 01:36:43;;;;;;;1.05;0.77;;;21.90;56.80;;;;;;6171135;28;20110;-68
2022/07/12 01:39:44;;;;;;;0.65;0.60;;;21.90;56.80;;;;;;6171532;28;20031;-67
2022/07/12 01:42:46;;;;;;;1.02;0.80;;;21.90;56.80;;;;;;6171448;28;20023;-68
2022/07/12 01:45:46;;;;;;;0.73;0.68;;;21.90;56.80;;;;;;6170801;28;20320;-67
2022/07/12 01:48:47;;;;;;;1.50;0.80;;;21.90;56.80;;;;;;6170737;28;20422;-67
2022/07/12 01:51:47;;;;;;;0.93;0.85;;;21.90;56.80;;;;;;6175158;28;20030;-67
2022/07/12 01:54:49;;;;;;;0.85;0.70;;;21.90;56.80;;;;;;6170994;28;20506;-67
2022/07/12 01:57:50;;;;;;;0.82;0.77;;;21.90;56.80;;;;;;6170512;28;20038;-67
2022/07/12 02:00:52;;;;;;;0.70;0.60;;;21.90;56.80;;;;;;6170729;28;20517;-67
2022/07/12 02:03:53;;;;;;;1.50;0.70;;;21.90;56.80;;;;;;6170640;28;20033;-66
2022/07/12 02:06:55;;;;;;;0.95;0.70;;;21.90;56.80;;;;;;6170574;28;20031;-67
2022/07/12 02:09:55;;;;;;;0.65;0.60;;;21.90;56.80;;;;;;6170301;28;20035;-68
2022/07/12 02:12:57;;;;;;;0.90;0.70;;;21.90;56.80;;;;;;6170729;28;20533;-67
2022/07/12 02:15:58;;;;;;;1.35;0.90;;;21.90;56.80;;;;;;6169910;28;20026;-67
2022/07/12 02:18:58;;;;;;;0.73;0.70;;;21.90;56.80;;;;;;6170484;28;20023;-67
2022/07/12 02:21:59;;;;;;;0.77;0.68;;;21.90;57.50;;;;;;6169882;28;20065;-68
2022/07/12 02:25:00;;;;;;;1.00;0.88;;;21.90;56.80;;;;;;6170825;28;20045;-67
2022/07/12 02:28:00;;;;;;;1.05;0.70;;;21.90;56.80;;;;;;6169859;28;20035;-67
2022/07/12 02:31:01;;;;;;;0.60;0.60;;;21.90;56.80;;;;;;6170048;28;20054;-66
2022/07/12 02:34:02;;;;;;;0.70;0.70;;;21.90;56.80;;;;;;6170165;28;20110;-67
2022/07/12 02:37:02;;;;;;;0.80;0.73;;;21.90;56.80;;;;;;6169783;28;20018;-67
2022/07/12 02:43:25;;;;;;;1.20;0.80;;;21.90;56.80;;;;;;6169543;28;20031;-67
2022/07/12 02:46:25;;;;;;;0.75;0.70;;;21.90;56.80;;;;;;6168859;28;20023;-68
2022/07/12 02:49:26;;;;;;;0.98;0.75;;;21.90;56.80;;;;;;6169568;28;20058;-67
2022/07/12 02:52:27;;;;;;;0.77;0.70;;;21.90;56.80;;;;;;6169852;28;20478;-68
2022/07/12 02:55:27;;;;;;;1.00;0.90;;;21.90;56.80;;;;;;6169975;28;20113;-67
2022/07/12 02:58:28;;;;;;;0.68;0.60;;;21.90;56.80;;;;;;6170556;28;20063;-67
2022/07/12 03:01:29;;;;;;;0.90;0.68;;;21.90;56.80;;;;;;6169505;28;20029;-67
2022/07/12 03:04:29;;;;;;;1.00;0.90;;;21.90;56.80;;;;;;6169974;28;20023;-67
2022/07/12 03:07:30;;;;;;;0.80;0.80;;;21.90;56.80;;;;;;6169898;28;20103;-67
2022/07/12 03:10:31;;;;;;;1.02;0.82;;;21.90;56.80;;;;;;6170033;28;20022;-68
2022/07/12 03:13:31;;;;;;;1.05;0.95;;;21.90;56.80;;;;;;6169275;28;20027;-68
2022/07/12 03:16:32;;;;;;;0.80;0.70;;;21.90;56.80;;;;;;6170134;28;20345;-67
2022/07/12 03:19:32;;;;;;;2.25;0.80;;;21.90;56.80;;;;;;6168221;28;20126;-68
2022/07/12 03:22:33;;;;;;;0.95;0.85;;;21.90;56.80;;;;;;6169535;28;20026;-67
2022/07/12 03:25:34;;;;;;;0.70;0.68;;;21.90;56.80;;;;;;6169568;28;20038;-68
2022/07/12 03:28:35;;;;;;;0.75;0.65;;;21.90;56.90;;;;;;6169587;28;20363;-67
2022/07/12 03:31:35;;;;;;;0.98;0.63;;;21.90;56.80;;;;;;6160237;28;20441;-68
2022/07/12 03:34:36;;;;;;;1.20;0.80;;;21.90;56.80;;;;;;6167834;28;20057;-67
2022/07/12 03:37:51;;;;;;;1.25;0.80;;;21.90;56.80;;;;;;6169490;28;20035;-68
2022/07/12 03:40:52;;;;;;;1.67;0.88;;;21.90;56.80;;;;;;6169601;28;20023;-67
2022/07/12 03:43:52;;;;;;;0.60;0.60;;;21.90;56.80;;;;;;6169277;28;20019;-67
2022/07/12 03:46:53;;;;;;;1.10;0.90;;;21.90;56.80;;;;;;6169821;28;20493;-67
2022/07/12 03:49:55;;;;;;;0.90;0.70;;;21.90;56.80;;;;;;6173480;28;20047;-67
2022/07/12 03:52:56;;;;;;;0.60;0.60;;;21.90;56.80;;;;;;6173367;28;20730;-67
2022/07/12 03:55:56;;;;;;;0.60;0.60;;;21.90;56.80;;;;;;6173767;28;20027;-67
2022/07/12 03:58:57;;;;;;;0.80;0.75;;;21.90;56.80;;;;;;6173590;28;20034;-67
2022/07/12 04:01:58;;;;;;;0.60;0.60;;;21.90;56.80;;;;;;6173435;28;20031;-67
2022/07/12 04:04:58;;;;;;;1.08;0.70;;;21.90;56.80;;;;;;6173262;28;20030;-67
2022/07/12 04:08:01;;;;;;;0.70;0.70;;;21.90;56.80;;;;;;6173372;28;20042;-67
2022/07/12 04:11:02;;;;;;;1.08;0.60;;;21.90;56.80;;;;;;6173435;28;20077;-67
2022/07/12 04:14:03;;;;;;;0.68;0.50;;;21.90;56.80;;;;;;6173284;28;20106;-67
2022/07/12 04:17:05;;;;;;;0.80;0.80;;;21.90;56.80;;;;;;6173287;28;20035;-68
2022/07/12 04:20:06;;;;;;;1.00;0.70;;;21.90;56.80;;;;;;6173034;28;20026;-68
2022/07/12 04:23:09;;;;;;;0.80;0.68;;;21.90;56.80;;;;;;6172841;28;20101;-67
2022/07/12 04:26:09;;;;;;;0.60;0.60;;;21.90;57.50;;;;;;6172704;28;20478;-67
2022/07/12 04:29:10;;;;;;;0.88;0.75;;;21.90;56.80;;;;;;6173049;28;20121;-67
2022/07/12 04:32:10;;;;;;;1.50;0.98;;;21.90;56.80;;;;;;6173051;28;20181;-66
2022/07/12 04:35:11;;;;;;;1.00;0.73;;;21.90;56.80;;;;;;6172563;28;20026;-68
2022/07/12 04:38:12;;;;;;;1.10;0.90;;;21.90;56.80;;;;;;6172905;28;20027;-68
2022/07/12 04:41:12;;;;;;;1.13;0.70;;;21.90;56.80;;;;;;6173297;28;20089;-68
2022/07/12 04:44:13;;;;;;;0.90;0.70;;;21.90;56.80;;;;;;6172837;28;20031;-68
2022/07/12 04:47:14;;;;;;;1.02;0.80;;;21.90;56.80;;;;;;6172840;28;20035;-67
2022/07/12 04:50:14;;;;;;;0.98;0.60;;;21.90;56.80;;;;;;6172318;28;20058;-68
2022/07/12 04:53:15;;;;;;;1.27;0.75;;;21.90;56.80;;;;;;6172142;28;20027;-67
2022/07/12 04:56:15;;;;;;;1.00;0.80;;;21.90;56.80;;;;;;6172214;28;20493;-68
2022/07/12 05:03:13;;;;;;;0.80;0.60;;;21.90;56.90;;;;;;6171641;28;20042;-66
2022/07/12 05:06:14;;;;;;;1.00;0.70;;;21.90;56.80;;;;;;6171832;28;20097;-66
2022/07/12 05:09:14;;;;;;;0.90;0.70;;;21.90;56.80;;;;;;6171829;28;20046;-67
2022/07/12 05:12:15;;;;;;;0.55;0.55;;;21.90;56.80;;;;;;6171871;28;20031;-67
2022/07/12 05:15:16;;;;;;;0.90;0.70;;;21.90;56.80;;;;;;6171775;28;20034;-67
2022/07/12 05:18:16;;;;;;;0.98;0.77;;;21.90;56.80;;;;;;6171756;28;20105;-66
2022/07/12 05:21:17;;;;;;;0.80;0.77;;;21.90;56.90;;;;;;6171725;28;20165;-68
2022/07/12 05:24:18;;;;;;;0.90;0.68;;;21.90;56.90;;;;;;6170827;28;20633;-67
2022/07/12 05:27:18;;;;;;;0.60;0.60;;;21.90;56.90;;;;;;6171570;28;20027;-67
2022/07/12 05:30:19;;;;;;;0.90;0.70;;;21.90;56.80;;;;;;6179152;28;20534;-67
2022/07/12 05:33:20;;;;;;;0.77;0.75;;;21.90;56.80;;;;;;6171775;28;20030;-67
2022/07/12 05:36:21;;;;;;;0.80;0.60;;;21.90;56.80;;;;;;6171214;28;20031;-67
2022/07/12 05:39:22;;;;;;;2.00;0.73;;;21.90;56.80;;;;;;6171332;28;20099;-67
2022/07/12 05:42:22;;;;;;;0.90;0.63;;;21.90;56.80;;;;;;6171236;28;20035;-67
2022/07/12 05:45:24;;;;;;;0.70;0.60;;;21.90;56.80;;;;;;6171030;28;20034;-67
2022/07/12 05:48:24;;;;;;;0.75;0.60;;;21.90;56.80;;;;;;6170920;28;20051;-68
2022/07/12 05:54:44;;;;;;;0.50;0.50;;;21.90;57.50;;;;;;6170798;28;20030;-67
2022/07/12 05:57:45;;;;;;;0.70;0.70;;;21.90;56.70;;;;;;6170881;28;20057;-67
2022/07/12 06:00:47;;;;;;;1.52;0.70;;;21.90;56.70;;;;;;6171005;28;20031;-66
2022/07/12 06:03:48;;;;;;;0.85;0.63;;;21.90;56.70;;;;;;6173050;28;20023;-68
2022/07/12 06:06:48;;;;;;;0.80;0.80;;;21.90;56.60;;;;;;6172825;28;20433;-68
2022/07/12 06:09:49;;;;;;;0.82;0.60;;;21.90;56.70;;;;;;6172086;28;20027;-68
2022/07/12 06:12:49;;;;;;;0.80;0.80;;;21.90;56.70;;;;;;6173054;28;20069;-68
2022/07/12 06:15:50;;;;;;;0.85;0.70;;;21.90;56.70;;;;;;6172214;28;20089;-67
2022/07/12 06:18:50;;;;;;;1.00;0.80;;;21.90;56.70;;;;;;6172542;28;20025;-67
2022/07/12 06:21:51;;;;;;;1.33;0.82;;;21.90;56.70;;;;;;6172461;28;20027;-67
2022/07/12 06:24:52;;;;;;;1.30;0.77;;;21.90;56.70;;;;;;6172788;28;20495;-67
2022/07/12 06:27:52;;;;;;;0.80;0.65;;;21.90;56.70;;;;;;6172458;28;20037;-66
2022/07/12 06:30:53;;;;;;;1.33;0.75;;;21.90;56.70;;;;;;6172438;28;20015;-66
2022/07/12 06:33:54;;;;;;;1.25;0.95;;;21.90;56.70;;;;;;6172461;28;20482;-66
2022/07/12 06:36:54;;;;;;;1.33;0.90;;;21.90;56.70;;;;;;6172335;28;20027;-66
2022/07/12 06:39:55;;;;;;;1.50;0.90;;;21.90;56.70;;;;;;6172365;28;20038;-68
2022/07/12 06:42:55;;;;;;;0.73;0.70;;;21.90;56.70;;;;;;6172936;28;20027;-66
2022/07/12 06:45:56;;;;;;;0.82;0.70;;;21.90;56.70;;;;;;6172356;28;20362;-67
2022/07/12 06:48:57;;;;;;;1.38;0.98;;;21.90;56.70;;;;;;6172046;28;20051;-67
2022/07/12 06:51:57;;;;;;;1.73;1.10;;;21.90;56.70;;;;;;6172819;28;20031;-67
2022/07/12 06:54:58;;;;;;;0.98;0.73;;;21.90;56.70;;;;;;6172134;28;20059;-68
2022/07/12 06:57:59;;;;;;;1.00;0.70;;;21.90;56.70;;;;;;6172082;28;20031;-68
2022/07/12 07:00:59;;;;;;;1.00;0.90;;;21.90;56.70;;;;;;6172083;28;20027;-68
2022/07/12 07:04:00;;;;;;;1.38;0.63;;;21.90;56.70;;;;;;6171976;28;20440;-68
2022/07/12 07:07:01;;;;;;;1.08;0.73;;;21.90;56.70;;;;;;6172071;28;20031;-67
2022/07/12 07:10:02;;;;;;;0.70;0.65;;;21.90;56.70;;;;;;6172094;28;20027;-67
2022/07/12 07:13:02;;;;;;;1.30;1.02;;;21.90;56.70;;;;;;6172108;28;20470;-67
2022/07/12 07:16:03;;;;;;;1.35;0.80;;;21.90;56.70;;;;;;6171866;28;20446;-68
2022/07/12 07:19:05;;;;;;;1.20;0.88;;;21.90;56.70;;;;;;6171855;28;20520;-67
2022/07/12 07:22:06;;;;;;;2.05;0.85;;;21.90;56.70;;;;;;6173122;28;20054;-67
2022/07/12 07:25:07;;;;;;;0.75;0.70;;;21.90;56.70;;;;;;6176017;28;20409;-68
2022/07/12 07:28:07;;;;;;;0.70;0.70;;;21.90;56.70;;;;;;6176217;28;20477;-67
2022/07/12 07:31:08;;;;;;;0.77;0.77;;;21.90;56.70;;;;;;6176257;28;20023;-68
2022/07/12 07:34:09;;;;;;;1.92;0.90;;;21.90;56.70;;;;;;6176194;28;20037;-67
2022/07/12 07:37:10;;;;;;;0.73;0.68;;;21.90;56.70;;;;;;6176226;28;20030;-67
2022/07/12 07:40:11;;;;;;;1.20;0.80;;;21.90;56.70;;;;;;6175979;28;20026;-67
2022/07/12 07:43:12;;;;;;;1.58;0.70;;;21.90;56.70;;;;;;6176215;28;20074;-67
2022/07/12 07:46:12;;;;;;;1.20;0.90;;;21.90;56.70;;;;;;6175672;28;20434;-67
2022/07/12 07:49:13;;;;;;;1.52;0.85;;;21.90;56.70;;;;;;6175919;28;20047;-68
2022/07/12 07:52:14;;;;;;;0.80;0.80;;;21.90;56.70;;;;;;6175924;28;20058;-68
2022/07/12 07:55:15;;;;;;;0.80;0.70;;;21.90;56.70;;;;;;6175608;28;20019;-67
2022/07/12 07:58:16;;;;;;;0.82;0.75;;;21.90;56.70;;;;;;6175602;28;20342;-67
2022/07/12 08:01:16;;;;;;;0.60;0.60;;;21.90;56.70;;;;;;6176011;28;20055;-67
2022/07/12 08:04:18;;;;;;;0.63;0.63;;;21.90;56.70;;;;;;6175920;28;20486;-67
2022/07/12 08:07:18;;;;;;;0.65;0.60;;;21.90;56.70;;;;;;6175406;28;20027;-67
2022/07/12 08:10:19;;;;;;;0.90;0.70;;;21.90;56.70;;;;;;6175546;28;20057;-67
2022/07/12 08:13:20;;;;;;;1.00;0.88;;;21.90;56.70;;;;;;6176211;28;20098;-68
2022/07/12 08:16:20;;;;;;;1.20;1.00;;;21.90;56.70;;;;;;6175043;28;20022;-67
2022/07/12 08:19:21;;;;;;;1.05;0.70;;;21.90;56.70;;;;;;6175336;28;20023;-68
2022/07/12 08:22:22;;;;;;;0.57;0.57;;;21.90;57.50;;;;;;6175579;28;20117;-68
2022/07/12 08:25:22;;;;;;;0.85;0.75;;;21.90;56.70;;;;;;6175008;28;20096;-68
2022/07/12 08:28:23;;;;;;;0.80;0.60;;;21.90;56.70;;;;;;6175203;28;20034;-68
2022/07/12 08:31:24;;;;;;;1.35;0.80;;;21.80;56.70;;;;;;6173425;28;20019;-68
2022/07/12 08:34:24;;;;;;;1.02;0.70;;;21.90;56.80;;;;;;6174690;28;20058;-67
2022/07/12 08:37:25;;;;;;;1.00;0.60;;;21.90;56.80;;;;;;6174807;28;20015;-68
2022/07/12 08:40:25;;;;;;;1.23;0.90;;;21.90;56.80;;;;;;6174971;28;20030;-67
2022/07/12 08:43:26;;;;;;;0.60;0.60;;;21.90;56.80;;;;;;6174731;28;20027;-67
2022/07/12 08:46:27;;;;;;;1.10;0.65;;;21.90;56.80;;;;;;6174802;28;20443;-67
2022/07/12 08:49:27;;;;;;;1.45;0.75;;;21.90;56.80;;;;;;6174491;28;20211;-67
2022/07/12 08:52:28;;;;;;;1.00;0.77;;;21.90;56.80;;;;;;6174397;28;20042;-67
2022/07/12 08:55:37;;;;;;;1.75;0.93;;;21.90;56.70;;;;;;6174385;28;20023;-68
2022/07/12 08:58:39;;;;;;;1.15;0.70;;;21.90;56.70;;;;;;6174615;28;20043;-67
2022/07/12 09:01:51;;;;;;;1.10;0.80;;;21.90;56.70;;;;;;6174358;28;20540;-67
2022/07/12 09:05:08;;;;;;;0.90;0.70;;;21.90;56.80;;;;;;6174345;28;20070;-66
2022/07/12 09:08:10;;;;;;;0.90;0.75;;;21.90;56.80;;;;;;6174430;28;20046;-66
2022/07/12 09:11:15;;;;;;;1.25;0.80;;;21.90;56.80;;;;;;6173883;28;20536;-67
2022/07/12 09:14:19;;;;;;;1.25;0.80;;;21.90;56.80;;;;;;6174281;28;20030;-68
2022/07/12 09:17:22;;;;;;;1.10;0.93;;;21.90;56.80;;;;;;6173797;28;20019;-68
2022/07/12 09:20:25;;;;;;;1.63;0.90;;;21.90;56.80;;;;;;6173776;28;20033;-67
2022/07/12 09:23:26;;;;;;;1.02;0.82;;;21.90;56.80;;;;;;6174025;28;20414;-67
2022/07/12 09:26:34;;;;;;;1.38;0.73;;;21.90;56.80;;;;;;6173795;28;20027;-66
2022/07/12 09:29:47;;;;;;;1.08;0.90;;;21.90;56.80;;;;;;6173200;28;20498;-68
2022/07/12 09:36:13;;;;;;;0.70;0.70;;;21.90;56.90;;;;;;6172933;28;20113;-67
2022/07/12 09:39:14;;;;;;;0.77;0.75;;;21.90;56.90;;;;;;6173422;28;20084;-66
2022/07/12 09:42:15;;;;;;;1.02;0.77;;;21.90;56.80;;;;;;6173300;28;20470;-67
2022/07/12 09:45:17;;;;;;;0.80;0.80;;;21.90;56.80;;;;;;6172169;28;20099;-67
2022/07/12 09:48:22;;;;;;;0.80;0.80;;;21.90;56.80;;;;;;6172839;28;20494;-67
2022/07/12 09:51:24;;;;;;;2.17;0.98;;;21.90;56.90;;;;;;6173361;28;20116;-68
2022/07/12 09:54:29;;;;;;;0.98;0.70;;;21.90;56.80;;;;;;6172728;28;20501;-68
2022/07/12 09:57:33;;;;;;;1.00;0.82;;;21.90;56.80;;;;;;6173094;28;20027;-67
2022/07/12 10:00:36;;;;;;;1.05;0.80;;;21.90;56.80;;;;;;6172906;28;20057;-67
2022/07/12 10:03:40;;;;;;;1.10;0.90;;;21.90;56.80;;;;;;6172838;28;20042;-67
2022/07/12 10:06:41;;;;;;;1.00;0.82;;;21.90;56.80;;;;;;6172839;28;20066;-67
2022/07/12 10:09:44;;;;;;;1.10;0.90;;;21.90;56.80;;;;;;6172698;28;20085;-67
2022/07/12 10:12:45;;;;;;;0.70;0.68;;;21.90;56.90;;;;;;6172857;28;20219;-67
2022/07/12 10:15:48;;;;;;;1.00;0.82;;;21.90;56.90;;;;;;6172847;28;20098;-67
2022/07/12 10:18:50;;;;;;;0.95;0.80;;;21.90;56.80;;;;;;6172504;28;20069;-67
2022/07/12 10:21:53;;;;;;;1.48;0.85;;;21.90;56.90;;;;;;6172868;28;20019;-67
2022/07/12 10:24:54;;;;;;;1.17;0.82;;;21.90;56.80;;;;;;6172716;28;20154;-67
2022/07/12 10:27:55;;;;;;;1.25;0.80;;;21.90;56.90;;;;;;6172163;28;20081;-68
2022/07/12 10:30:56;;;;;;;0.63;0.60;;;21.90;56.90;;;;;;6172207;28;20031;-67
2022/07/12 10:34:07;;;;;;;0.95;0.80;;;21.90;56.80;;;;;;6172503;28;20026;-67
2022/07/12 10:37:09;;;;;;;0.70;0.70;;;21.80;56.80;;;;;;6172583;28;20030;-67
2022/07/12 10:40:15;;;;;;;0.70;0.70;;;21.90;56.90;;;;;;6172352;28;20028;-67
2022/07/12 10:43:18;;;;;;;1.08;0.95;;;21.90;56.90;;;;;;6172546;28;20030;-67
2022/07/12 10:46:23;;;;;;;0.75;0.70;;;21.90;56.90;;;;;;6171830;28;20023;-67
2022/07/12 10:49:28;;;;;;;1.38;0.98;;;21.90;56.90;;;;;;6172204;28;20046;-68
2022/07/12 10:52:28;;;;;;;0.80;0.70;;;21.90;57.50;;;;;;6172616;28;20031;-67
2022/07/12 10:55:29;;;;;;;1.42;1.00;;;21.80;56.80;;;;;;6172050;28;20497;-68
2022/07/12 10:58:52;;;;;;;0.95;0.77;;;21.90;56.90;;;;;;6176835;28;20034;-68
2022/07/12 11:01:55;;;;;;;0.95;0.80;;;21.90;56.90;;;;;;6176902;28;20287;-67
2022/07/12 11:04:56;;;;;;;1.25;0.88;;;21.90;56.90;;;;;;6177482;28;20073;-67
2022/07/12 11:07:58;;;;;;;1.23;1.10;;;21.90;56.90;;;;;;6176904;28;20030;-66
2022/07/12 11:10:59;;;;;;;1.35;1.00;;;21.90;56.90;;;;;;6177151;28;20490;-67
2022/07/12 11:14:01;;;;;;;0.82;0.80;;;21.90;56.90;;;;;;6176689;28;20493;-68
2022/07/12 11:17:02;;;;;;;0.80;0.70;;;21.90;56.90;;;;;;6177146;28;20378;-68
2022/07/12 11:20:09;;;;;;;1.23;0.90;;;21.90;56.90;;;;;;6176643;28;20053;-67
2022/07/12 11:23:09;;;;;;;1.08;0.93;;;21.90;56.90;;;;;;6176485;28;20027;-68
2022/07/12 11:26:11;;;;;;;1.23;0.90;;;21.90;56.90;;;;;;6167733;28;20042;-67
2022/07/12 11:29:12;;;;;;;1.73;1.02;;;21.90;56.90;;;;;;6176287;28;20536;-67
2022/07/12 11:32:13;;;;;;;1.23;0.80;;;21.90;56.90;;;;;;6176506;28;20028;-67
2022/07/12 11:35:21;;;;;;;0.85;0.82;;;21.90;56.90;;;;;;6176189;28;20054;-67
2022/07/12 11:38:28;;;;;;;1.52;1.20;;;21.90;56.90;;;;;;6176088;28;20019;-67
2022/07/12 11:41:29;;;;;;;1.00;0.90;;;21.90;56.90;;;;;;6176284;28;20033;-67
2022/07/12 11:44:51;;;;;;;1.02;0.85;;;21.80;56.80;;;;;;6176430;28;20023;-68
2022/07/12 11:47:52;;;;;;;1.13;0.77;;;21.80;56.80;;;;;;6176077;28;20074;-67
2022/07/12 11:50:54;;;;;;;1.08;0.80;;;21.90;57.60;;;;;;6175822;28;20418;-67
2022/07/12 11:53:55;;;;;;;0.73;0.65;;;21.90;56.90;;;;;;6175945;28;20621;-67
2022/07/12 11:57:09;;;;;;;1.17;0.98;;;21.90;56.90;;;;;;6175805;28;20023;-67
2022/07/12 12:00:22;;;;;;;1.02;0.93;;;21.80;56.80;;;;;;6175967;28;20023;-67
2022/07/12 12:03:24;;;;;;;1.38;1.02;;;21.90;56.90;;;;;;6152207;28;20035;-67
2022/07/12 12:06:25;;;;;;;1.05;0.80;;;21.90;56.90;;;;;;6160502;28;20062;-67
2022/07/12 12:09:25;;;;;;;1.13;1.02;;;21.90;56.90;;;;;;6174843;28;20076;-68
2022/07/12 12:12:27;;;;;;;1.00;0.90;;;21.80;56.90;;;;;;6175479;28;20026;-67
2022/07/12 12:15:31;;;;;;;1.13;0.77;;;21.90;56.90;;;;;;6175832;28;20505;-67
2022/07/12 12:18:31;;;;;;;1.02;0.90;;;21.90;56.90;;;;;;6151381;28;20459;-68
2022/07/12 12:21:34;;;;;;;1.10;0.90;;;21.80;56.80;;;;;;6151918;29;20034;-67
2022/07/12 12:24:35;;;;;;;1.73;1.20;;;21.90;56.90;;;;;;6151115;29;20019;-67
2022/07/12 12:27:45;;;;;;;1.30;0.90;;;21.90;56.90;;;;;;6167432;28;20504;-67
2022/07/12 12:30:54;;;;;;;1.17;0.90;;;21.80;56.90;;;;;;6174881;28;20030;-67
2022/07/12 12:33:58;;;;;;;1.15;0.98;;;21.80;56.80;;;;;;6175002;28;20105;-67
2022/07/12 12:37:03;;;;;;;1.30;1.00;;;21.90;56.90;;;;;;6175012;28;20027;-67
2022/07/12 12:40:05;;;;;;;;;;;21.80;56.80;;;;;;6175394;28;20038;-68
2022/07/12 12:43:12;;;;;;;1.50;1.25;;;21.90;57.00;;;;;;6174833;28;19906;-67
2022/07/12 12:46:13;;;;;;;1.20;1.00;;;21.80;56.90;;;;;;6174517;28;20031;-67
2022/07/12 12:49:14;;;;;;;1.30;1.10;;;21.80;56.90;;;;;;6174671;28;20050;-67
2022/07/12 12:52:14;;;;;;;1.13;0.90;;;21.80;56.90;;;;;;6174494;28;20023;-66
2022/07/12 12:55:15;;;;;;;1.50;1.30;;;21.80;56.90;;;;;;6174597;28;20035;-67
2022/07/12 12:58:18;;;;;;;1.33;1.13;;;21.80;56.90;;;;;;6174186;28;20031;-67
2022/07/12 13:01:18;;;;;;;1.42;1.15;;;21.80;56.90;;;;;;6174350;28;20031;-67
2022/07/12 13:04:19;;;;;;;1.33;1.20;;;21.90;57.00;;;;;;6174148;28;20262;-67
2022/07/12 13:07:20;;;;;;;2.83;1.20;;;21.80;56.90;;;;;;6174838;28;20378;-67
2022/07/12 13:10:21;;;;;;;1.75;1.10;;;21.80;56.90;;;;;;6174143;28;20616;-66
2022/07/12 13:13:22;;;;;;;2.00;1.20;;;21.80;56.90;;;;;;6174465;28;20042;-67
2022/07/12 13:16:22;;;;;;;1.40;1.10;;;21.80;56.90;;;;;;6174157;28;20505;-67
2022/07/12 13:19:24;;;;;;;1.10;1.00;;;21.80;56.90;;;;;;6173436;28;20031;-67
2022/07/12 13:22:25;;;;;;;1.33;1.02;;;21.80;56.90;;;;;;6173716;28;20109;-68
2022/07/12 13:25:26;;;;;;;1.55;1.23;;;21.80;56.90;;;;;;6173706;28;20484;-67
2022/07/12 13:28:27;;;;;;;1.30;1.20;;;21.80;56.90;;;;;;6173658;28;20570;-67
2022/07/12 13:31:28;;;;;;;1.33;1.23;;;21.80;56.90;;;;;;6173839;28;20023;-67
2022/07/12 13:34:28;;;;;;;1.27;1.00;;;21.80;57.00;;;;;;6174207;28;20078;-68
2022/07/12 13:37:29;;;;;;;1.30;1.15;;;21.80;56.90;;;;;;6173751;28;20045;-67
2022/07/12 13:40:30;;;;;;;1.40;1.20;;;21.80;56.90;;;;;;6173862;28;20452;-67
2022/07/12 13:43:31;;;;;;;1.27;1.10;;;21.90;57.00;;;;;;6173330;28;20501;-67
2022/07/12 13:46:32;;;;;;;1.40;1.02;;;21.90;57.00;;;;;;6173418;28;20034;-66
2022/07/12 13:49:32;;;;;;;1.20;1.10;;;21.80;56.90;;;;;;6172532;28;20078;-68
2022/07/12 13:52:33;;;;;;;1.73;1.30;;;21.90;57.00;;;;;;6173179;28;20027;-67
2022/07/12 13:55:34;;;;;;;1.08;0.98;;;21.80;56.90;;;;;;6173315;28;20089;-67
2022/07/12 13:58:34;;;;;;;1.83;1.63;;;21.90;57.00;;;;;;6173216;28;20101;-68
2022/07/12 14:01:35;;;;;;;1.10;1.00;;;21.80;56.90;;;;;;6188315;28;20023;-67
2022/07/12 14:04:35;;;;;;;1.25;1.15;;;21.80;56.90;;;;;;6172800;28;20042;-67
2022/07/12 14:07:37;;;;;;;1.40;1.30;;;21.80;56.90;;;;;;6172918;28;20035;-67
2022/07/12 14:10:38;;;;;;;1.23;1.13;;;21.80;56.90;;;;;;6172779;28;20031;-68
2022/07/12 14:13:39;;;;;;;1.60;1.20;;;21.80;56.90;;;;;;6173121;28;20556;-66
2022/07/12 14:16:40;;;;;;;1.92;1.35;;;21.80;56.90;;;;;;6173373;28;20034;-68
2022/07/12 14:19:40;;;;;;;1.33;1.23;;;21.80;56.90;;;;;;6177969;28;20030;-66
2022/07/12 14:22:41;;;;;;;1.25;1.13;;;21.80;56.90;;;;;;6172943;28;20493;-67
2022/07/12 14:25:42;;;;;;;1.65;1.20;;;21.80;56.90;;;;;;6172207;28;20029;-68
2022/07/12 14:28:42;;;;;;;1.00;0.90;;;21.80;56.90;;;;;;6172569;28;20130;-67
2022/07/12 14:31:43;;;;;;;1.42;1.10;;;21.80;57.00;;;;;;6171843;28;20386;-68
2022/07/12 14:34:44;;;;;;;1.10;1.00;;;21.80;57.00;;;;;;6172545;28;20145;-67
2022/07/12 14:37:44;;;;;;;1.30;1.20;;;21.80;57.00;;;;;;6172700;28;20022;-67
2022/07/12 14:40:45;;;;;;;1.42;1.33;;;21.80;57.00;;;;;;6172403;28;20031;-67
2022/07/12 14:43:47;;;;;;;1.70;1.40;;;21.80;56.90;;;;;;6172302;28;20026;-67
2022/07/12 14:46:48;;;;;;;1.40;1.30;;;21.80;56.90;;;;;;6173250;28;20058;-67
2022/07/12 14:49:49;;;;;;;1.20;1.10;;;21.80;57.00;;;;;;6171820;28;20079;-67
2022/07/12 14:52:49;;;;;;;1.45;1.30;;;21.80;57.00;;;;;;6172306;28;20031;-67
2022/07/12 14:55:50;;;;;;;2.42;1.55;;;21.80;56.90;;;;;;6171706;28;20532;-67
2022/07/12 14:58:50;;;;;;;1.50;1.20;;;21.90;57.00;;;;;;6171637;28;20355;-68
2022/07/12 15:01:52;;;;;;;1.70;1.30;;;21.80;56.90;;;;;;6171928;28;20023;-67
2022/07/12 15:04:52;;;;;;;1.42;1.30;;;21.80;57.10;;;;;;6171647;28;20036;-68
2022/07/12 15:07:53;;;;;;;1.50;1.10;;;21.80;57.10;;;;;;6171817;28;20034;-68
2022/07/12 15:10:55;;;;;;;1.58;1.40;;;21.80;56.90;;;;;;6171536;28;20386;-67
2022/07/12 15:13:56;;;;;;;1.58;1.25;;;21.80;56.90;;;;;;6171436;28;20023;-67
2022/07/12 15:16:57;;;;;;;1.70;1.55;;;21.80;56.90;;;;;;6172322;28;20031;-67
2022/07/12 15:19:57;;;;;;;1.75;1.48;;;21.80;56.90;;;;;;6178379;28;20542;-67
2022/07/12 15:22:58;;;;;;;2.00;1.38;;;21.80;56.90;;;;;;6147797;29;20065;-68
2022/07/12 15:25:59;;;;;;;1.50;1.30;;;21.80;56.90;;;;;;6150111;28;20154;-67
2022/07/12 15:29:02;;;;;;;1.58;1.25;;;21.90;57.00;;;;;;6170945;28;20069;-68
2022/07/12 15:32:03;;;;;;;2.22;1.40;;;21.80;56.90;;;;;;6171256;28;20034;-67
2022/07/12 15:35:05;;;;;;;1.42;1.30;;;21.80;57.60;;;;;;6171494;28;20027;-67
2022/07/12 15:38:06;;;;;;;2.03;1.65;;;21.90;57.00;;;;;;6171682;28;20113;-67
2022/07/12 15:41:07;;;;;;;1.50;1.38;;;21.80;56.90;;;;;;6171482;28;20031;-67
2022/07/12 15:44:09;;;;;;;1.73;1.40;;;21.80;56.90;;;;;;6173573;28;20027;-66
2022/07/12 15:47:13;;;;;;;1.48;1.27;;;21.80;57.00;;;;;;6175896;28;20111;-67
2022/07/12 15:50:14;;;;;;;1.88;1.40;;;21.80;56.90;;;;;;6175456;28;20049;-68
2022/07/12 15:53:27;;;;;;;1.63;1.30;;;21.80;56.90;;;;;;6175690;28;20389;-67
2022/07/12 15:56:28;;;;;;;1.30;1.20;;;21.80;57.00;;;;;;6176097;28;20023;-67
2022/07/12 15:59:28;;;;;;;1.30;1.20;;;21.80;56.90;;;;;;6175705;28;20433;-66